Time;durP1;ratioP1;P1;durP2;ratioP2;P2;SDS_P1;SDS_P2;PMS_P1;PMS_P2;Temp;Humidity;BMP_temperature;BMP_pressure;BME280_temperature;BME280_humidity;BME280_pressure;Samples;Min_cycle;Max_cycle;Signal;HPM_P1;HPM_P2
2022/10/13 00:00:55;;;;;;;18.57;16.60;;;11.90;99.90;;;;;;6223375;23;20435;-83
2022/10/13 00:03:22;;;;;;;23.03;16.37;;;12.00;99.90;;;;;;6222602;23;20572;-84
2022/10/13 00:05:51;;;;;;;19.20;16.53;;;12.00;99.90;;;;;;6223144;23;20418;-83
2022/10/13 00:08:20;;;;;;;21.93;16.30;;;12.00;99.90;;;;;;6221610;23;20890;-83
2022/10/13 00:10:50;;;;;;;31.57;18.90;;;11.90;99.90;;;;;;6223093;23;20502;-83
2022/10/13 00:13:17;;;;;;;21.57;16.87;;;11.80;99.90;;;;;;6223548;23;20413;-83
2022/10/13 00:15:46;;;;;;;22.17;19.40;;;11.70;99.90;;;;;;6222548;23;20411;-83
2022/10/13 00:18:13;;;;;;;26.20;20.93;;;11.70;99.90;;;;;;6222313;23;20429;-82
2022/10/13 00:20:41;;;;;;;23.87;21.50;;;11.70;99.90;;;;;;6223167;23;20471;-83
2022/10/13 00:23:08;;;;;;;31.13;21.73;;;11.70;99.90;;;;;;6223149;23;20396;-82
2022/10/13 00:25:35;;;;;;;30.47;23.10;;;11.70;99.90;;;;;;6222962;23;20412;-83
2022/10/13 00:28:03;;;;;;;33.00;23.47;;;11.80;99.90;;;;;;6222669;23;20444;-83
2022/10/13 00:30:33;;;;;;;32.83;23.07;;;11.70;99.90;;;;;;6222431;23;20419;-84
2022/10/13 00:33:00;;;;;;;30.60;22.97;;;11.80;99.90;;;;;;6223237;23;20405;-84
2022/10/13 00:35:27;;;;;;;31.40;21.73;;;11.90;99.90;;;;;;6222763;23;20447;-83
2022/10/13 00:37:54;;;;;;;37.70;23.10;;;12.00;99.90;;;;;;6222038;23;20436;-83
2022/10/13 00:40:20;;;;;;;31.27;22.60;;;12.20;99.90;;;;;;6222258;23;20412;-84
2022/10/13 00:42:47;;;;;;;30.33;23.50;;;12.30;99.90;;;;;;6222736;23;20413;-83
2022/10/13 00:45:24;;;;;;;37.00;21.93;;;12.30;99.90;;;;;;6222863;23;20408;-81
2022/10/13 00:47:55;;;;;;;32.07;20.60;;;12.30;99.90;;;;;;6222699;23;20441;-82
2022/10/13 00:50:27;;;;;;;26.23;21.07;;;12.40;99.90;;;;;;6222826;23;20710;-84
2022/10/13 00:52:56;;;;;;;34.70;22.93;;;12.40;99.90;;;;;;6222677;23;20799;-84
2022/10/13 00:55:27;;;;;;;26.73;19.67;;;12.50;99.90;;;;;;6222376;23;20458;-84
2022/10/13 00:57:57;;;;;;;29.67;19.87;;;12.60;99.90;;;;;;6222159;23;20429;-83
2022/10/13 01:00:25;;;;;;;33.63;22.67;;;12.70;99.90;;;;;;6222708;23;20416;-83
2022/10/13 01:02:52;;;;;;;32.93;22.60;;;12.70;99.90;;;;;;6222997;23;20425;-82
2022/10/13 01:05:21;;;;;;;35.40;24.73;;;12.70;99.90;;;;;;6222482;23;21294;-84
2022/10/13 01:07:49;;;;;;;29.77;21.60;;;12.60;99.90;;;;;;6221682;23;20449;-82
2022/10/13 01:10:23;;;;;;;31.30;21.73;;;12.60;99.90;;;;;;6222303;23;20413;-84
2022/10/13 01:12:57;;;;;;;28.80;23.10;;;12.60;99.90;;;;;;6223222;23;20429;-83
2022/10/13 01:15:32;;;;;;;30.93;21.37;;;12.60;99.90;;;;;;6221267;23;20438;-81
2022/10/13 01:18:07;;;;;;;29.93;22.83;;;12.70;99.90;;;;;;6222085;23;20424;-83
2022/10/13 01:20:52;;;;;;;31.43;19.27;;;12.70;99.90;;;;;;6222066;23;20407;-83
2022/10/13 01:23:47;;;;;;;25.77;19.80;;;12.70;99.90;;;;;;6220624;23;20413;-84
2022/10/13 01:26:42;;;;;;;27.87;20.23;;;12.70;99.90;;;;;;6222021;23;20396;-83
2022/10/13 01:29:21;;;;;;;25.53;20.53;;;12.60;99.90;;;;;;6222354;23;20439;-83
2022/10/13 01:31:54;;;;;;;32.20;23.43;;;12.60;99.90;;;;;;6222706;23;20396;-81
2022/10/13 01:34:26;;;;;;;30.07;23.60;;;12.60;99.90;;;;;;6222469;23;20436;-84
2022/10/13 01:37:03;;;;;;;30.90;22.33;;;12.60;99.90;;;;;;6222013;23;20455;-84
2022/10/13 01:39:37;;;;;;;25.70;22.00;;;12.60;99.90;;;;;;6221729;23;20429;-83
2022/10/13 01:42:11;;;;;;;27.70;19.93;;;12.60;99.90;;;;;;6222855;23;20397;-84
2022/10/13 01:44:42;;;;;;;30.10;23.13;;;12.60;99.90;;;;;;6221888;23;20397;-83
2022/10/13 01:47:13;;;;;;;33.43;21.50;;;12.70;99.90;;;;;;6222142;23;20404;-81
2022/10/13 01:49:40;;;;;;;28.90;20.80;;;12.70;99.90;;;;;;6222656;23;20724;-83
2022/10/13 01:52:12;;;;;;;27.60;22.10;;;12.70;99.90;;;;;;6222451;23;20415;-83
2022/10/13 01:54:39;;;;;;;27.43;22.40;;;12.70;99.90;;;;;;6222826;23;20437;-84
2022/10/13 01:57:30;;;;;;;40.33;23.57;;;12.70;99.90;;;;;;6222744;23;20415;-83
2022/10/13 01:59:56;;;;;;;35.03;24.23;;;12.70;99.90;;;;;;6222165;23;20400;-84
2022/10/13 02:02:29;;;;;;;32.03;23.40;;;12.60;99.90;;;;;;6236287;23;20489;-81
2022/10/13 02:05:07;;;;;;;27.73;21.40;;;12.70;99.90;;;;;;6240865;23;20383;-81
2022/10/13 02:07:41;;;;;;;30.87;20.50;;;12.80;99.90;;;;;;6233994;23;20400;-81
2022/10/13 02:10:17;;;;;;;29.47;21.93;;;12.80;99.90;;;;;;6222144;23;20391;-82
2022/10/13 02:12:49;;;;;;;28.10;22.97;;;12.90;99.90;;;;;;6222446;23;20703;-84
2022/10/13 02:15:21;;;;;;;29.30;20.40;;;12.90;99.90;;;;;;6221551;23;20428;-82
2022/10/13 02:17:50;;;;;;;26.53;18.43;;;12.80;99.90;;;;;;6222137;23;20429;-82
2022/10/13 02:20:19;;;;;;;31.50;20.60;;;12.80;99.90;;;;;;6222681;23;20840;-84
2022/10/13 02:22:50;;;;;;;30.33;21.97;;;12.90;99.90;;;;;;6222571;23;20423;-83
2022/10/13 02:25:17;;;;;;;30.70;22.10;;;12.80;99.90;;;;;;6222430;23;20393;-84
2022/10/13 02:27:44;;;;;;;26.30;20.60;;;12.80;99.90;;;;;;6221506;23;20437;-83
2022/10/13 02:30:21;;;;;;;29.80;21.00;;;12.80;99.90;;;;;;6222841;23;20389;-84
2022/10/13 02:32:49;;;;;;;28.00;20.93;;;12.90;99.90;;;;;;6222170;23;20395;-83
2022/10/13 02:35:15;;;;;;;28.80;21.77;;;12.80;99.90;;;;;;6221504;23;20452;-84
2022/10/13 02:37:42;;;;;;;25.07;20.50;;;12.80;99.90;;;;;;6220967;23;20924;-83
2022/10/13 02:40:10;;;;;;;30.03;20.00;;;12.80;99.90;;;;;;6222841;23;20413;-84
2022/10/13 02:42:37;;;;;;;30.87;22.73;;;12.80;99.90;;;;;;6222187;23;20413;-84
2022/10/13 02:45:05;;;;;;;27.10;20.37;;;12.80;99.90;;;;;;6221764;23;20410;-84
2022/10/13 02:47:31;;;;;;;33.30;22.07;;;12.70;99.90;;;;;;6222663;23;20409;-83
2022/10/13 02:49:59;;;;;;;29.03;20.80;;;12.70;99.90;;;;;;6221632;23;20416;-84
2022/10/13 02:52:26;;;;;;;26.07;19.87;;;12.80;99.90;;;;;;6222048;23;20416;-84
2022/10/13 02:54:53;;;;;;;32.07;22.60;;;12.70;99.90;;;;;;6224290;23;20451;-83
2022/10/13 02:57:20;;;;;;;26.00;19.30;;;12.70;99.90;;;;;;6223818;23;20416;-83
2022/10/13 02:59:46;;;;;;;29.53;22.63;;;12.70;99.90;;;;;;6223593;23;20416;-82
2022/10/13 03:02:13;;;;;;;28.30;20.80;;;12.60;99.90;;;;;;6232449;23;20397;-79
2022/10/13 03:04:40;;;;;;;28.20;21.50;;;12.70;99.90;;;;;;6227404;23;20436;-82
2022/10/13 03:07:08;;;;;;;27.57;19.97;;;12.70;99.90;;;;;;6225332;23;20415;-81
2022/10/13 03:09:35;;;;;;;36.83;19.70;;;12.70;99.90;;;;;;6224115;23;20429;-83
2022/10/13 03:12:02;;;;;;;28.57;20.80;;;12.80;99.90;;;;;;6224134;23;20730;-83
2022/10/13 03:14:29;;;;;;;31.97;19.37;;;12.90;99.90;;;;;;6224721;23;21141;-84
2022/10/13 03:16:55;;;;;;;31.03;20.80;;;12.90;99.90;;;;;;6223350;23;20412;-84
2022/10/13 03:19:22;;;;;;;24.00;19.73;;;12.90;99.90;;;;;;6223795;23;20432;-84
2022/10/13 03:21:49;;;;;;;27.43;21.40;;;12.90;99.90;;;;;;6224464;23;20413;-83
2022/10/13 03:24:18;;;;;;;24.90;19.70;;;12.90;99.90;;;;;;6224457;23;20408;-84
2022/10/13 03:26:44;;;;;;;21.87;18.67;;;12.90;99.90;;;;;;6224462;23;20412;-84
2022/10/13 03:29:13;;;;;;;25.07;18.40;;;12.90;99.90;;;;;;6222793;23;20450;-83
2022/10/13 03:31:40;;;;;;;31.30;19.93;;;12.90;99.90;;;;;;6223374;23;20496;-83
2022/10/13 03:34:07;;;;;;;27.83;20.67;;;12.90;99.90;;;;;;6223649;23;20415;-84
2022/10/13 03:36:34;;;;;;;24.23;18.93;;;13.00;99.90;;;;;;6224022;23;20416;-83
2022/10/13 03:39:01;;;;;;;25.63;19.97;;;13.00;99.90;;;;;;6223528;23;20432;-84
2022/10/13 03:41:29;;;;;;;26.07;18.80;;;13.00;99.90;;;;;;6222903;23;20415;-84
2022/10/13 03:43:55;;;;;;;22.10;18.37;;;13.00;99.90;;;;;;6223674;23;20405;-82
2022/10/13 03:46:26;;;;;;;21.20;18.83;;;13.10;99.90;;;;;;6224061;23;20408;-82
2022/10/13 03:48:53;;;;;;;23.40;19.80;;;13.10;99.90;;;;;;6223068;23;20444;-82
2022/10/13 03:51:21;;;;;;;29.97;18.93;;;13.10;99.90;;;;;;6223979;23;21016;-82
2022/10/13 03:53:48;;;;;;;21.87;17.43;;;13.20;99.90;;;;;;6224316;23;20888;-82
2022/10/13 03:56:17;;;;;;;27.17;20.07;;;13.20;99.90;;;;;;6230367;23;20436;-78
2022/10/13 03:58:45;;;;;;;26.03;18.17;;;13.20;99.90;;;;;;6227197;23;20432;-82
2022/10/13 04:01:13;;;;;;;22.90;18.97;;;13.20;99.90;;;;;;6223830;23;20413;-81
2022/10/13 04:03:40;;;;;;;24.97;18.97;;;13.30;99.90;;;;;;6223963;23;20818;-81
2022/10/13 04:06:07;;;;;;;24.23;18.97;;;13.30;99.90;;;;;;6223819;23;20499;-82
2022/10/13 04:08:34;;;;;;;23.53;18.17;;;13.30;99.90;;;;;;6223574;23;20488;-82
2022/10/13 04:11:02;;;;;;;24.97;20.20;;;13.30;99.90;;;;;;6224284;23;20419;-82
2022/10/13 04:13:29;;;;;;;19.27;17.30;;;13.30;99.90;;;;;;6224097;23;20412;-81
2022/10/13 04:16:01;;;;;;;25.20;17.50;;;13.30;99.90;;;;;;6222652;23;20450;-82
2022/10/13 04:18:28;;;;;;;25.10;17.80;;;13.30;99.90;;;;;;6223460;23;20432;-82
2022/10/13 04:20:55;;;;;;;22.70;18.00;;;13.10;99.90;;;;;;6224397;23;20477;-82
2022/10/13 04:23:21;;;;;;;24.70;17.80;;;13.10;99.90;;;;;;6223865;23;20416;-81
2022/10/13 04:25:48;;;;;;;20.50;17.43;;;13.10;99.90;;;;;;6223402;23;20419;-82
2022/10/13 04:28:15;;;;;;;19.60;16.00;;;13.10;99.90;;;;;;6222887;23;20501;-82
2022/10/13 04:30:42;;;;;;;22.00;16.63;;;13.10;99.90;;;;;;6223678;23;20405;-82
2022/10/13 04:33:10;;;;;;;19.50;16.93;;;13.10;99.90;;;;;;6223725;23;20416;-82
2022/10/13 04:35:40;;;;;;;20.93;16.37;;;13.00;99.90;;;;;;6224179;23;20448;-82
2022/10/13 04:38:06;;;;;;;22.90;18.73;;;13.00;99.90;;;;;;6222852;23;20429;-82
2022/10/13 04:40:34;;;;;;;18.60;15.90;;;13.00;99.90;;;;;;6222961;23;20408;-81
2022/10/13 04:43:01;;;;;;;24.80;16.87;;;12.90;99.90;;;;;;6222732;23;20416;-82
2022/10/13 04:45:28;;;;;;;21.23;17.70;;;12.90;99.90;;;;;;6223095;23;20408;-84
2022/10/13 04:47:55;;;;;;;19.97;15.17;;;12.90;99.90;;;;;;6222425;23;20776;-84
2022/10/13 04:50:23;;;;;;;21.40;16.57;;;12.90;99.90;;;;;;6229116;23;20411;-82
2022/10/13 04:52:50;;;;;;;21.50;17.10;;;12.80;99.90;;;;;;6228623;23;20422;-83
2022/10/13 04:55:16;;;;;;;20.13;17.93;;;12.70;99.90;;;;;;6223644;23;20443;-84
2022/10/13 04:57:43;;;;;;;19.67;16.13;;;12.70;99.90;;;;;;6224201;23;20511;-84
2022/10/13 05:00:11;;;;;;;21.60;15.37;;;12.80;99.90;;;;;;6223637;23;20994;-83
2022/10/13 05:02:38;;;;;;;19.83;15.63;;;12.90;99.90;;;;;;6223894;23;20414;-83
2022/10/13 05:05:06;;;;;;;20.53;17.00;;;12.90;99.90;;;;;;6224474;23;20415;-84
2022/10/13 05:07:34;;;;;;;22.03;15.73;;;12.90;99.90;;;;;;6225580;23;20409;-81
2022/10/13 05:10:01;;;;;;;19.73;15.07;;;12.90;99.90;;;;;;6241060;23;20915;-82
2022/10/13 05:12:27;;;;;;;24.20;17.20;;;12.90;99.90;;;;;;6241469;23;20456;-81
2022/10/13 05:14:54;;;;;;;20.23;15.83;;;12.80;99.90;;;;;;6232060;23;20437;-83
2022/10/13 05:17:21;;;;;;;19.60;16.60;;;12.80;99.90;;;;;;6222550;23;20813;-81
2022/10/13 05:19:49;;;;;;;25.80;18.50;;;12.80;99.90;;;;;;6222345;23;20418;-84
2022/10/13 05:22:16;;;;;;;18.97;15.33;;;12.80;99.90;;;;;;6222570;23;20406;-84
2022/10/13 05:24:44;;;;;;;21.43;16.40;;;12.70;99.90;;;;;;6223592;23;20446;-84
2022/10/13 05:27:12;;;;;;;16.57;14.87;;;12.60;99.90;;;;;;6222840;23;20404;-84
2022/10/13 05:29:39;;;;;;;21.40;14.40;;;12.60;99.90;;;;;;6222189;23;20431;-84
2022/10/13 05:32:07;;;;;;;23.00;16.37;;;12.50;99.90;;;;;;6223634;23;20741;-84
2022/10/13 05:34:33;;;;;;;23.17;17.47;;;12.40;99.90;;;;;;6222671;23;20416;-83
2022/10/13 05:37:00;;;;;;;18.37;14.27;;;12.40;99.90;;;;;;6222847;23;20412;-83
2022/10/13 05:39:28;;;;;;;17.43;15.53;;;12.40;99.90;;;;;;6222304;23;20766;-83
2022/10/13 05:41:56;;;;;;;25.13;16.00;;;12.50;99.90;;;;;;6221631;23;20419;-84
2022/10/13 05:44:23;;;;;;;22.80;14.63;;;12.40;99.90;;;;;;6226014;23;20516;-83
2022/10/13 05:46:50;;;;;;;24.53;17.40;;;12.40;99.90;;;;;;6228300;23;20423;-83
2022/10/13 05:49:17;;;;;;;21.47;16.10;;;12.40;99.90;;;;;;6223249;23;20430;-83
2022/10/13 05:51:47;;;;;;;19.07;15.60;;;12.30;99.90;;;;;;6223456;23;20412;-82
2022/10/13 05:54:17;;;;;;;21.60;16.73;;;12.20;99.90;;;;;;6222300;23;20736;-84
2022/10/13 05:56:50;;;;;;;25.73;17.90;;;12.00;99.90;;;;;;6222256;23;20500;-82
2022/10/13 05:59:20;;;;;;;23.07;18.50;;;11.90;99.90;;;;;;6221465;23;20496;-84
2022/10/13 06:01:47;;;;;;;23.53;16.67;;;12.00;99.90;;;;;;6221435;23;20412;-84
2022/10/13 06:04:18;;;;;;;24.30;17.90;;;12.00;99.90;;;;;;6221465;23;20446;-82
2022/10/13 06:06:45;;;;;;;23.73;19.93;;;12.00;99.90;;;;;;6221419;23;20391;-84
2022/10/13 06:09:12;;;;;;;24.20;17.80;;;12.00;99.90;;;;;;6220814;23;20432;-82
2022/10/13 06:11:39;;;;;;;26.77;18.57;;;12.00;99.90;;;;;;6221964;23;20426;-83
2022/10/13 06:14:06;;;;;;;22.90;16.57;;;12.00;99.90;;;;;;6222924;23;20411;-84
2022/10/13 06:16:36;;;;;;;29.47;20.40;;;12.00;99.90;;;;;;6221877;23;20448;-84
2022/10/13 06:19:03;;;;;;;20.43;16.70;;;12.10;99.90;;;;;;6222126;23;20799;-83
2022/10/13 06:21:30;;;;;;;24.70;16.70;;;12.10;99.90;;;;;;6222601;23;20416;-83
2022/10/13 06:23:56;;;;;;;28.83;16.83;;;12.10;99.90;;;;;;6222619;23;20408;-82
2022/10/13 06:26:23;;;;;;;26.17;17.60;;;12.20;99.90;;;;;;6221750;23;20491;-84
2022/10/13 06:28:50;;;;;;;23.63;18.60;;;12.20;99.90;;;;;;6222286;23;20447;-84
2022/10/13 06:31:17;;;;;;;26.03;17.60;;;12.20;99.90;;;;;;6221781;23;20931;-83
2022/10/13 06:33:45;;;;;;;26.20;16.70;;;12.30;99.90;;;;;;6224186;23;20972;-83
2022/10/13 06:36:11;;;;;;;21.60;15.40;;;12.40;99.90;;;;;;6224220;23;20448;-84
2022/10/13 06:38:38;;;;;;;24.67;16.17;;;12.50;99.90;;;;;;6228425;23;21226;-83
2022/10/13 06:41:06;;;;;;;18.50;14.17;;;12.60;99.90;;;;;;6227654;23;20415;-84
2022/10/13 06:43:33;;;;;;;26.73;17.70;;;12.60;99.90;;;;;;6223617;23;20441;-84
2022/10/13 06:46:00;;;;;;;22.40;15.03;;;12.70;99.90;;;;;;6223198;23;20412;-84
2022/10/13 06:48:28;;;;;;;20.57;16.00;;;12.70;99.90;;;;;;6222661;23;20434;-82
2022/10/13 06:51:00;;;;;;;20.67;16.07;;;12.80;99.90;;;;;;6222834;23;20415;-83
2022/10/13 06:53:26;;;;;;;19.13;14.00;;;12.90;99.90;;;;;;6220101;23;20393;-85
2022/10/13 06:55:56;;;;;;;22.70;15.07;;;13.00;99.90;;;;;;6219409;23;20455;-82
2022/10/13 06:58:23;;;;;;;23.60;16.37;;;13.10;99.90;;;;;;6222456;23;20453;-85
2022/10/13 07:00:49;;;;;;;25.43;16.77;;;13.00;99.90;;;;;;6223068;23;20415;-82
2022/10/13 07:03:16;;;;;;;20.67;15.13;;;13.10;99.90;;;;;;6217672;23;20419;-85
2022/10/13 07:05:43;;;;;;;19.73;14.77;;;13.20;99.90;;;;;;6218966;23;20403;-84
2022/10/13 07:08:11;;;;;;;23.77;16.17;;;13.30;99.90;;;;;;6218143;23;20431;-83
2022/10/13 07:10:38;;;;;;;26.33;15.77;;;13.20;99.90;;;;;;6217778;23;20405;-86
2022/10/13 07:13:05;;;;;;;22.13;17.80;;;13.30;99.90;;;;;;6219027;23;20482;-85
2022/10/13 07:15:32;;;;;;;23.00;15.70;;;13.40;99.90;;;;;;6219333;23;20782;-85
2022/10/13 07:17:59;;;;;;;18.17;15.47;;;13.50;99.90;;;;;;6217623;23;20444;-84
2022/10/13 07:20:29;;;;;;;18.20;14.97;;;13.50;99.90;;;;;;6220416;23;20830;-84
2022/10/13 07:22:56;;;;;;;18.17;15.23;;;13.60;99.90;;;;;;6220289;23;20491;-84
2022/10/13 07:25:24;;;;;;;17.80;14.60;;;13.60;99.90;;;;;;6221243;23;20780;-84
2022/10/13 07:27:51;;;;;;;19.87;14.67;;;13.70;99.90;;;;;;6219621;23;20437;-86
2022/10/13 07:30:18;;;;;;;17.90;13.20;;;13.70;99.90;;;;;;6221497;23;20415;-84
2022/10/13 07:32:45;;;;;;;18.03;14.70;;;13.80;99.90;;;;;;6227185;23;20416;-82
2022/10/13 07:35:12;;;;;;;17.20;12.97;;;13.90;99.90;;;;;;6220832;23;20880;-83
2022/10/13 07:37:39;;;;;;;20.67;13.70;;;13.90;99.90;;;;;;6217350;23;20429;-81
2022/10/13 07:40:07;;;;;;;19.00;13.87;;;14.00;99.90;;;;;;6217298;23;20409;-82
2022/10/13 07:42:35;;;;;;;17.87;12.70;;;14.10;99.90;;;;;;6217715;23;20419;-83
2022/10/13 07:45:02;;;;;;;18.90;14.67;;;14.20;99.90;;;;;;6217434;23;20417;-82
2022/10/13 07:47:29;;;;;;;18.20;14.20;;;14.10;99.90;;;;;;6217404;23;20409;-83
2022/10/13 07:49:55;;;;;;;20.60;15.10;;;13.90;99.90;;;;;;6217273;23;20412;-82
2022/10/13 07:52:22;;;;;;;16.70;15.00;;;13.70;99.90;;;;;;6218125;23;20409;-82
2022/10/13 07:54:50;;;;;;;18.97;15.10;;;13.70;99.90;;;;;;6217937;23;20418;-83
2022/10/13 07:57:17;;;;;;;20.70;13.80;;;13.70;99.90;;;;;;6218121;23;20475;-83
2022/10/13 07:59:45;;;;;;;22.00;13.40;;;13.80;99.90;;;;;;6217866;23;20413;-83
2022/10/13 08:02:12;;;;;;;17.73;14.83;;;14.00;99.90;;;;;;6217623;23;20500;-82
2022/10/13 08:04:39;;;;;;;15.27;13.10;;;14.00;99.90;;;;;;6217149;23;20419;-82
2022/10/13 08:07:06;;;;;;;17.70;14.80;;;14.20;99.90;;;;;;6217130;23;20409;-82
2022/10/13 08:09:33;;;;;;;13.70;12.30;;;14.30;99.90;;;;;;6217340;23;20520;-82
2022/10/13 08:12:00;;;;;;;14.93;11.40;;;14.50;99.90;;;;;;6218102;23;20709;-83
2022/10/13 08:14:27;;;;;;;14.73;12.07;;;14.50;99.90;;;;;;6217812;23;20409;-83
2022/10/13 08:16:55;;;;;;;16.07;12.43;;;14.60;99.90;;;;;;6217748;23;20438;-83
2022/10/13 08:19:25;;;;;;;18.30;13.83;;;14.60;99.90;;;;;;6217281;23;20433;-83
2022/10/13 08:21:52;;;;;;;14.37;11.40;;;14.70;99.90;;;;;;6217541;23;20913;-83
2022/10/13 08:24:21;;;;;;;14.60;13.00;;;14.70;99.90;;;;;;6217548;23;20410;-83
2022/10/13 08:26:48;;;;;;;14.67;11.77;;;14.70;99.90;;;;;;6221478;23;20403;-83
2022/10/13 08:29:15;;;;;;;12.40;10.93;;;14.70;99.90;;;;;;6224314;23;20505;-83
2022/10/13 08:31:42;;;;;;;16.20;12.43;;;14.80;99.90;;;;;;6218049;23;20411;-83
2022/10/13 08:34:11;;;;;;;14.13;12.33;;;14.80;99.90;;;;;;6217951;23;20409;-82
2022/10/13 08:36:39;;;;;;;14.43;11.40;;;14.80;99.90;;;;;;6217499;23;20453;-83
2022/10/13 08:39:06;;;;;;;13.97;11.70;;;14.90;99.90;;;;;;6217371;23;20438;-83
2022/10/13 08:41:37;;;;;;;15.63;10.27;;;15.00;99.90;;;;;;6220745;23;20785;-82
2022/10/13 08:44:07;;;;;;;12.50;11.20;;;15.00;99.90;;;;;;6219346;23;20393;-82
2022/10/13 08:46:42;;;;;;;11.20;9.80;;;15.00;99.90;;;;;;6217348;23;20421;-82
2022/10/13 08:49:10;;;;;;;10.07;9.10;;;14.90;99.90;;;;;;6216528;23;20428;-82
2022/10/13 08:51:37;;;;;;;14.67;10.33;;;15.00;99.90;;;;;;6216823;23;20405;-82
2022/10/13 08:54:05;;;;;;;11.23;9.90;;;15.00;99.90;;;;;;6216114;23;20453;-79
2022/10/13 08:56:34;;;;;;;14.27;10.73;;;15.10;99.90;;;;;;6216473;23;20444;-80
2022/10/13 08:59:04;;;;;;;19.33;11.63;;;15.20;99.90;;;;;;6216253;23;20429;-80
2022/10/13 09:01:34;;;;;;;11.47;9.73;;;15.30;99.90;;;;;;6216816;23;20908;-80
2022/10/13 09:04:16;;;;;;;14.43;9.50;;;15.40;99.90;;;;;;6216470;23;20505;-80
2022/10/13 09:06:47;;;;;;;11.37;9.70;;;15.60;99.90;;;;;;6216191;23;20401;-80
2022/10/13 09:09:17;;;;;;;11.67;9.20;;;15.80;99.90;;;;;;6215742;23;20461;-80
2022/10/13 09:11:46;;;;;;;10.30;9.07;;;15.90;99.90;;;;;;6223098;23;20430;-81
2022/10/13 09:14:21;;;;;;;10.10;9.20;;;16.10;99.90;;;;;;6217833;23;20462;-81
2022/10/13 09:16:49;;;;;;;12.37;9.20;;;16.20;99.90;;;;;;6218081;23;20439;-81
2022/10/13 09:19:27;;;;;;;9.60;8.67;;;16.20;99.90;;;;;;6218051;23;20469;-80
2022/10/13 09:21:56;;;;;;;9.83;8.27;;;16.30;99.90;;;;;;6226413;23;20389;-80
2022/10/13 09:24:24;;;;;;;11.53;7.73;;;16.30;99.90;;;;;;6220968;23;20402;-81
2022/10/13 09:27:02;;;;;;;8.40;7.37;;;16.40;99.90;;;;;;6217700;23;20921;-81
2022/10/13 09:29:29;;;;;;;9.63;8.63;;;16.50;99.90;;;;;;6216944;23;20438;-81
2022/10/13 09:32:12;;;;;;;9.63;7.30;;;16.60;99.90;;;;;;6217774;23;20726;-81
2022/10/13 09:34:40;;;;;;;11.03;8.60;;;16.70;99.90;;;;;;6217601;23;20391;-82
2022/10/13 09:37:17;;;;;;;8.70;7.77;;;16.80;99.90;;;;;;6217205;23;20768;-81
2022/10/13 09:39:44;;;;;;;7.20;6.57;;;16.80;99.90;;;;;;6217200;23;20794;-82
2022/10/13 09:42:22;;;;;;;9.40;7.73;;;16.40;99.90;;;;;;6217339;23;20414;-82
2022/10/13 09:44:57;;;;;;;7.57;6.77;;;16.50;99.90;;;;;;6217062;23;20400;-82
2022/10/13 09:47:25;;;;;;;8.33;6.60;;;16.50;99.90;;;;;;6217094;23;20421;-82
2022/10/13 09:50:02;;;;;;;7.13;6.43;;;16.50;99.90;;;;;;6216880;23;20410;-82
2022/10/13 09:52:29;;;;;;;9.30;8.30;;;16.60;99.90;;;;;;6217006;23;20392;-82
2022/10/13 09:54:58;;;;;;;8.90;8.07;;;16.70;99.90;;;;;;6217348;23;21109;-82
2022/10/13 09:57:40;;;;;;;10.30;8.53;;;16.80;99.90;;;;;;6216693;23;20493;-82
2022/10/13 10:00:24;;;;;;;9.57;7.10;;;16.90;99.90;;;;;;6216805;23;20391;-82
2022/10/13 10:02:56;;;;;;;8.13;6.97;;;17.10;99.90;;;;;;6217605;23;20391;-82
2022/10/13 10:05:38;;;;;;;7.63;6.87;;;17.20;99.90;;;;;;6217758;23;20399;-82
2022/10/13 10:08:17;;;;;;;6.80;6.10;;;17.30;99.90;;;;;;6216467;23;20435;-82
2022/10/13 10:10:46;;;;;;;8.50;6.53;;;17.30;99.90;;;;;;6217303;23;20765;-82
2022/10/13 10:13:14;;;;;;;8.43;6.20;;;17.40;99.90;;;;;;6217206;23;20418;-82
2022/10/13 10:15:49;;;;;;;10.10;7.40;;;17.60;99.90;;;;;;6216816;23;20415;-82
2022/10/13 10:18:20;;;;;;;11.77;7.80;;;17.40;99.90;;;;;;6228408;23;20465;-82
2022/10/13 10:21:00;;;;;;;8.13;7.37;;;17.50;99.90;;;;;;6217265;23;20401;-82
2022/10/13 10:23:39;;;;;;;8.27;7.37;;;17.30;99.90;;;;;;6217393;23;20399;-81
2022/10/13 10:26:13;;;;;;;8.70;7.47;;;17.30;99.90;;;;;;6216903;23;20406;-82
2022/10/13 10:28:50;;;;;;;7.73;6.63;;;17.30;99.90;;;;;;6216776;23;20452;-81
2022/10/13 10:31:26;;;;;;;7.73;7.03;;;17.30;99.90;;;;;;6216863;23;20401;-82
2022/10/13 10:34:10;;;;;;;8.57;7.73;;;17.00;99.90;;;;;;6217078;23;20400;-82
2022/10/13 10:36:46;;;;;;;11.13;7.97;;;17.10;99.90;;;;;;6216769;23;20435;-82
2022/10/13 10:39:23;;;;;;;9.00;7.60;;;16.80;99.90;;;;;;6216749;23;20436;-82
2022/10/13 10:41:59;;;;;;;12.07;8.37;;;16.90;99.90;;;;;;6216756;23;20393;-82
2022/10/13 10:44:30;;;;;;;12.63;8.83;;;16.70;99.90;;;;;;6217331;23;20405;-81
2022/10/13 10:47:01;;;;;;;8.77;7.57;;;16.70;99.90;;;;;;6217110;23;20393;-82
2022/10/13 10:49:33;;;;;;;9.63;8.17;;;16.60;99.90;;;;;;6216067;23;20437;-82
2022/10/13 10:52:08;;;;;;;8.00;7.20;;;16.60;99.90;;;;;;6217830;23;20399;-82
2022/10/13 10:54:42;;;;;;;9.07;8.17;;;16.60;99.90;;;;;;6216684;23;20410;-81
2022/10/13 10:57:14;;;;;;;9.13;8.23;;;16.80;99.90;;;;;;6216821;23;20424;-82
2022/10/13 10:59:51;;;;;;;9.30;8.00;;;17.00;99.90;;;;;;6216158;23;20952;-82
2022/10/13 11:02:38;;;;;;;8.00;6.77;;;17.20;99.90;;;;;;6216825;23;20395;-82
2022/10/13 11:05:05;;;;;;;9.80;7.40;;;17.50;99.90;;;;;;6216513;23;20396;-83
2022/10/13 11:08:03;;;;;;;6.07;5.47;;;17.80;99.90;;;;;;6216776;23;20890;-83
2022/10/13 11:10:36;;;;;;;8.77;7.47;;;18.10;99.90;;;;;;6095199;23;20403;-83
2022/10/13 11:13:21;;;;;;;8.40;7.23;;;18.40;99.90;;;;;;6205518;23;20525;-83
2022/10/13 11:15:48;;;;;;;7.23;6.53;;;18.50;99.90;;;;;;6218742;23;20436;-83
2022/10/13 11:18:52;;;;;;;8.17;7.40;;;18.60;99.90;;;;;;6217776;23;20963;-82
2022/10/13 11:21:21;;;;;;;8.50;6.17;;;18.60;99.90;;;;;;6218924;23;20412;-82
2022/10/13 11:23:49;;;;;;;6.67;6.07;;;18.60;99.90;;;;;;6219060;23;20410;-82
2022/10/13 11:26:36;;;;;;;10.80;5.73;;;18.60;99.90;;;;;;6219690;23;20416;-82
2022/10/13 11:29:03;;;;;;;6.77;6.07;;;18.80;99.90;;;;;;6219200;23;20440;-82
2022/10/13 11:31:49;;;;;;;6.90;6.40;;;18.80;99.90;;;;;;6219130;23;20479;-82
2022/10/13 11:34:29;;;;;;;6.57;5.97;;;18.70;99.90;;;;;;6219856;23;20394;-83
2022/10/13 11:36:59;;;;;;;6.30;5.70;;;18.90;99.90;;;;;;6220244;23;20432;-83
2022/10/13 11:40:03;;;;;;;9.00;6.07;;;18.80;99.90;;;;;;6218133;23;20432;-82
2022/10/13 11:46:17;;;;;;;6.40;5.60;;;18.70;99.90;;;;;;6208631;23;20910;-85
2022/10/13 11:49:06;;;;;;;7.53;6.50;;;19.00;99.90;;;;;;6219469;23;20433;-84
2022/10/13 11:51:46;;;;;;;7.00;6.10;;;19.00;99.90;;;;;;6219173;23;20491;-85
2022/10/13 11:54:23;;;;;;;6.47;5.87;;;19.00;99.90;;;;;;6219296;23;20418;-84
2022/10/13 11:56:53;;;;;;;5.70;5.20;;;19.20;99.90;;;;;;6218661;23;20688;-83
2022/10/13 11:59:22;;;;;;;6.67;5.17;;;19.40;99.90;;;;;;6217836;23;20486;-82
2022/10/13 12:01:54;;;;;;;6.10;4.97;;;19.40;99.90;;;;;;6218351;23;20747;-83
2022/10/13 12:04:28;;;;;;;7.73;5.30;;;19.40;99.90;;;;;;6218720;23;20423;-82
2022/10/13 12:07:00;;;;;;;7.23;6.43;;;19.30;99.90;;;;;;6217323;23;20503;-83
2022/10/13 12:09:30;;;;;;;8.63;6.10;;;19.20;99.90;;;;;;6230215;23;20954;-84
2022/10/13 12:12:01;;;;;;;6.20;5.60;;;19.10;99.90;;;;;;6219087;23;20424;-84
2022/10/13 12:14:32;;;;;;;6.43;5.80;;;19.10;99.90;;;;;;6217564;23;21020;-83
2022/10/13 12:17:01;;;;;;;6.73;6.23;;;18.90;99.90;;;;;;6217580;23;20572;-84
2022/10/13 12:19:30;;;;;;;6.27;5.63;;;18.70;99.90;;;;;;6217445;23;20485;-88
2022/10/13 12:21:59;;;;;;;6.57;5.00;;;18.80;99.90;;;;;;6219314;23;20455;-85
2022/10/13 12:24:28;;;;;;;6.37;5.87;;;19.00;99.90;;;;;;6219607;23;20415;-86
2022/10/13 12:26:56;;;;;;;6.70;5.50;;;19.30;99.90;;;;;;6219245;23;20476;-84
2022/10/13 12:29:26;;;;;;;6.30;5.70;;;19.80;99.90;;;;;;6218728;23;20527;-86
2022/10/13 12:31:53;;;;;;;7.20;6.10;;;20.20;99.90;;;;;;6218472;23;20465;-83
2022/10/13 12:34:23;;;;;;;5.67;5.10;;;20.40;99.90;;;;;;6218621;23;20443;-85
2022/10/13 12:36:57;;;;;;;7.50;5.23;;;20.60;99.90;;;;;;6218848;23;20416;-85
2022/10/13 12:39:25;;;;;;;6.97;5.40;;;20.60;99.90;;;;;;6220178;23;20447;-85
2022/10/13 12:41:54;;;;;;;5.93;5.43;;;20.50;99.90;;;;;;6220642;23;20417;-86
2022/10/13 12:44:24;;;;;;;7.10;5.27;;;20.60;99.80;;;;;;6221482;23;20413;-87
2022/10/13 12:46:55;;;;;;;6.20;5.70;;;20.80;99.90;;;;;;6219708;23;20410;-85
2022/10/13 12:49:23;;;;;;;8.33;5.60;;;21.10;99.90;;;;;;6221029;23;20421;-85
2022/10/13 12:51:52;;;;;;;7.27;6.53;;;21.50;99.60;;;;;;6219832;23;20405;-85